sensor_id;sensor_type;location;lat;lon;timestamp;temperature;humidity
9542;DHT22;4809;48.224;8.572;2023-08-07T00:00:21;9.90;99.90
9542;DHT22;4809;48.224;8.572;2023-08-07T00:02:47;10.00;99.90
9542;DHT22;4809;48.224;8.572;2023-08-07T00:05:13;9.90;99.90
9542;DHT22;4809;48.224;8.572;2023-08-07T00:07:39;9.90;99.90
9542;DHT22;4809;48.224;8.572;2023-08-07T00:10:05;10.00;99.90
9542;DHT22;4809;48.224;8.572;2023-08-07T00:12:31;10.00;99.90
9542;DHT22;4809;48.224;8.572;2023-08-07T00:14:57;10.00;99.90
9542;DHT22;4809;48.224;8.572;2023-08-07T00:17:23;10.00;99.90
9542;DHT22;4809;48.224;8.572;2023-08-07T00:19:48;10.10;99.90
9542;DHT22;4809;48.224;8.572;2023-08-07T00:22:14;10.10;99.90
9542;DHT22;4809;48.224;8.572;2023-08-07T00:24:39;10.10;99.90
9542;DHT22;4809;48.224;8.572;2023-08-07T00:27:05;10.20;99.90
9542;DHT22;4809;48.224;8.572;2023-08-07T00:29:32;10.20;99.90
9542;DHT22;4809;48.224;8.572;2023-08-07T00:31:58;10.20;99.90
9542;DHT22;4809;48.224;8.572;2023-08-07T00:34:23;10.20;99.90
9542;DHT22;4809;48.224;8.572;2023-08-07T00:36:49;10.20;99.90
9542;DHT22;4809;48.224;8.572;2023-08-07T00:39:15;10.30;99.90
9542;DHT22;4809;48.224;8.572;2023-08-07T00:41:41;10.20;99.90
9542;DHT22;4809;48.224;8.572;2023-08-07T00:44:07;10.20;99.90
9542;DHT22;4809;48.224;8.572;2023-08-07T00:46:32;10.10;99.90
9542;DHT22;4809;48.224;8.572;2023-08-07T00:48:58;10.10;99.90
9542;DHT22;4809;48.224;8.572;2023-08-07T00:51:24;10.10;99.90
9542;DHT22;4809;48.224;8.572;2023-08-07T00:53:50;10.10;99.90
9542;DHT22;4809;48.224;8.572;2023-08-07T00:56:17;10.00;99.90
9542;DHT22;4809;48.224;8.572;2023-08-07T00:58:43;10.00;99.90
9542;DHT22;4809;48.224;8.572;2023-08-07T01:01:09;10.00;99.90
9542;DHT22;4809;48.224;8.572;2023-08-07T01:03:35;10.10;99.90
9542;DHT22;4809;48.224;8.572;2023-08-07T01:06:01;10.10;99.90
9542;DHT22;4809;48.224;8.572;2023-08-07T01:08:27;10.10;99.90
9542;DHT22;4809;48.224;8.572;2023-08-07T01:11:07;10.10;99.90
9542;DHT22;4809;48.224;8.572;2023-08-07T01:16:36;10.10;99.90
9542;DHT22;4809;48.224;8.572;2023-08-07T01:19:04;10.10;99.90
9542;DHT22;4809;48.224;8.572;2023-08-07T01:21:30;10.10;99.90
9542;DHT22;4809;48.224;8.572;2023-08-07T01:23:57;10.10;99.90
9542;DHT22;4809;48.224;8.572;2023-08-07T01:26:23;10.10;99.90
9542;DHT22;4809;48.224;8.572;2023-08-07T01:29:12;10.10;99.90
9542;DHT22;4809;48.224;8.572;2023-08-07T01:31:42;10.10;99.90
9542;DHT22;4809;48.224;8.572;2023-08-07T01:34:11;10.10;99.90
9542;DHT22;4809;48.224;8.572;2023-08-07T01:36:40;10.10;99.90
9542;DHT22;4809;48.224;8.572;2023-08-07T01:39:05;10.10;99.90
9542;DHT22;4809;48.224;8.572;2023-08-07T01:41:32;10.10;99.90
9542;DHT22;4809;48.224;8.572;2023-08-07T01:43:59;10.10;99.90
9542;DHT22;4809;48.224;8.572;2023-08-07T01:46:25;10.10;99.90
9542;DHT22;4809;48.224;8.572;2023-08-07T01:48:50;10.00;99.90
9542;DHT22;4809;48.224;8.572;2023-08-07T01:51:16;10.00;99.90
9542;DHT22;4809;48.224;8.572;2023-08-07T01:53:42;9.90;99.90
9542;DHT22;4809;48.224;8.572;2023-08-07T01:56:07;9.90;99.90
9542;DHT22;4809;48.224;8.572;2023-08-07T01:58:33;9.90;99.90
9542;DHT22;4809;48.224;8.572;2023-08-07T02:00:58;9.90;99.90
9542;DHT22;4809;48.224;8.572;2023-08-07T02:03:24;9.90;99.90
9542;DHT22;4809;48.224;8.572;2023-08-07T02:05:50;9.90;99.90
9542;DHT22;4809;48.224;8.572;2023-08-07T02:08:15;9.80;99.90
9542;DHT22;4809;48.224;8.572;2023-08-07T02:10:41;9.80;99.90
9542;DHT22;4809;48.224;8.572;2023-08-07T02:13:06;9.80;99.90
9542;DHT22;4809;48.224;8.572;2023-08-07T02:15:32;9.70;99.90
9542;DHT22;4809;48.224;8.572;2023-08-07T02:17:58;9.70;99.90
9542;DHT22;4809;48.224;8.572;2023-08-07T02:20:23;9.70;99.90
9542;DHT22;4809;48.224;8.572;2023-08-07T02:22:49;9.60;99.90
9542;DHT22;4809;48.224;8.572;2023-08-07T02:25:15;9.60;99.90
9542;DHT22;4809;48.224;8.572;2023-08-07T02:27:41;9.60;99.90
9542;DHT22;4809;48.224;8.572;2023-08-07T02:30:06;9.60;99.90
9542;DHT22;4809;48.224;8.572;2023-08-07T02:32:32;9.60;99.90
9542;DHT22;4809;48.224;8.572;2023-08-07T02:34:58;9.60;99.90
9542;DHT22;4809;48.224;8.572;2023-08-07T02:37:24;9.50;99.90
9542;DHT22;4809;48.224;8.572;2023-08-07T02:39:49;9.50;99.90
9542;DHT22;4809;48.224;8.572;2023-08-07T02:42:15;9.50;99.90
9542;DHT22;4809;48.224;8.572;2023-08-07T02:44:41;9.50;99.90
9542;DHT22;4809;48.224;8.572;2023-08-07T02:47:06;9.50;99.90
9542;DHT22;4809;48.224;8.572;2023-08-07T02:49:32;9.40;99.90
9542;DHT22;4809;48.224;8.572;2023-08-07T02:51:58;9.40;99.90
9542;DHT22;4809;48.224;8.572;2023-08-07T02:54:24;9.40;99.90
9542;DHT22;4809;48.224;8.572;2023-08-07T02:56:52;9.30;99.90
9542;DHT22;4809;48.224;8.572;2023-08-07T02:59:18;9.30;99.90
9542;DHT22;4809;48.224;8.572;2023-08-07T03:01:44;9.30;99.90
9542;DHT22;4809;48.224;8.572;2023-08-07T03:04:09;9.20;99.90
9542;DHT22;4809;48.224;8.572;2023-08-07T03:06:35;9.20;99.90
9542;DHT22;4809;48.224;8.572;2023-08-07T03:09:01;9.20;99.90
9542;DHT22;4809;48.224;8.572;2023-08-07T03:11:27;9.20;99.90
9542;DHT22;4809;48.224;8.572;2023-08-07T03:13:52;9.20;99.90
9542;DHT22;4809;48.224;8.572;2023-08-07T03:16:18;9.20;99.90
9542;DHT22;4809;48.224;8.572;2023-08-07T03:18:43;9.20;99.90
9542;DHT22;4809;48.224;8.572;2023-08-07T03:21:09;9.10;99.90
9542;DHT22;4809;48.224;8.572;2023-08-07T03:23:35;9.10;99.90
9542;DHT22;4809;48.224;8.572;2023-08-07T03:26:06;9.10;99.90
9542;DHT22;4809;48.224;8.572;2023-08-07T03:28:33;9.10;99.90
9542;DHT22;4809;48.224;8.572;2023-08-07T03:30:59;9.10;99.90
9542;DHT22;4809;48.224;8.572;2023-08-07T03:33:25;9.10;99.90
9542;DHT22;4809;48.224;8.572;2023-08-07T03:35:51;9.10;99.90
9542;DHT22;4809;48.224;8.572;2023-08-07T03:38:17;9.10;99.90
9542;DHT22;4809;48.224;8.572;2023-08-07T03:40:42;9.10;99.90
9542;DHT22;4809;48.224;8.572;2023-08-07T03:43:08;9.10;99.90
9542;DHT22;4809;48.224;8.572;2023-08-07T03:45:34;9.10;99.90
9542;DHT22;4809;48.224;8.572;2023-08-07T03:47:59;9.10;99.90
9542;DHT22;4809;48.224;8.572;2023-08-07T03:50:25;9.10;99.90
9542;DHT22;4809;48.224;8.572;2023-08-07T03:52:50;9.10;99.90
9542;DHT22;4809;48.224;8.572;2023-08-07T03:55:16;9.10;99.90
9542;DHT22;4809;48.224;8.572;2023-08-07T03:57:42;9.10;99.90
9542;DHT22;4809;48.224;8.572;2023-08-07T04:00:08;9.20;99.90
9542;DHT22;4809;48.224;8.572;2023-08-07T04:02:34;9.20;99.90
9542;DHT22;4809;48.224;8.572;2023-08-07T04:04:59;9.20;99.90
9542;DHT22;4809;48.224;8.572;2023-08-07T04:07:25;9.20;99.90
9542;DHT22;4809;48.224;8.572;2023-08-07T04:09:51;9.20;99.90
9542;DHT22;4809;48.224;8.572;2023-08-07T04:12:16;9.30;99.90
9542;DHT22;4809;48.224;8.572;2023-08-07T04:14:45;9.30;99.90
9542;DHT22;4809;48.224;8.572;2023-08-07T04:17:10;9.30;99.90
9542;DHT22;4809;48.224;8.572;2023-08-07T04:19:36;9.30;99.90
9542;DHT22;4809;48.224;8.572;2023-08-07T04:22:02;9.40;99.90
9542;DHT22;4809;48.224;8.572;2023-08-07T04:24:28;9.40;99.90
9542;DHT22;4809;48.224;8.572;2023-08-07T04:26:53;9.40;99.90
9542;DHT22;4809;48.224;8.572;2023-08-07T04:29:19;9.40;99.90
9542;DHT22;4809;48.224;8.572;2023-08-07T04:31:45;9.30;99.90
9542;DHT22;4809;48.224;8.572;2023-08-07T04:34:10;9.40;99.90
9542;DHT22;4809;48.224;8.572;2023-08-07T04:36:37;9.40;99.90
9542;DHT22;4809;48.224;8.572;2023-08-07T04:39:03;9.30;99.90
9542;DHT22;4809;48.224;8.572;2023-08-07T04:41:32;9.30;99.90
9542;DHT22;4809;48.224;8.572;2023-08-07T04:43:58;9.40;99.90
9542;DHT22;4809;48.224;8.572;2023-08-07T04:46:23;9.40;99.90
9542;DHT22;4809;48.224;8.572;2023-08-07T04:48:49;9.40;99.90
9542;DHT22;4809;48.224;8.572;2023-08-07T04:51:15;9.50;99.90
9542;DHT22;4809;48.224;8.572;2023-08-07T04:53:41;9.60;99.90
9542;DHT22;4809;48.224;8.572;2023-08-07T04:56:06;9.70;99.90
9542;DHT22;4809;48.224;8.572;2023-08-07T04:58:32;9.80;99.90
9542;DHT22;4809;48.224;8.572;2023-08-07T05:00:58;9.90;99.90
9542;DHT22;4809;48.224;8.572;2023-08-07T05:03:25;10.00;99.90
9542;DHT22;4809;48.224;8.572;2023-08-07T05:05:58;10.10;99.90
9542;DHT22;4809;48.224;8.572;2023-08-07T05:08:23;10.20;99.90
9542;DHT22;4809;48.224;8.572;2023-08-07T05:10:49;10.20;99.90
9542;DHT22;4809;48.224;8.572;2023-08-07T05:13:15;10.30;99.90
9542;DHT22;4809;48.224;8.572;2023-08-07T05:15:40;10.30;99.90
9542;DHT22;4809;48.224;8.572;2023-08-07T05:18:06;10.40;99.90
9542;DHT22;4809;48.224;8.572;2023-08-07T05:20:32;10.40;99.90
9542;DHT22;4809;48.224;8.572;2023-08-07T05:22:57;10.40;99.90
9542;DHT22;4809;48.224;8.572;2023-08-07T05:25:23;10.40;99.90
9542;DHT22;4809;48.224;8.572;2023-08-07T05:27:49;10.40;99.90
9542;DHT22;4809;48.224;8.572;2023-08-07T05:30:14;10.30;99.90
9542;DHT22;4809;48.224;8.572;2023-08-07T05:32:40;10.40;99.90
9542;DHT22;4809;48.224;8.572;2023-08-07T05:35:07;10.40;99.90
9542;DHT22;4809;48.224;8.572;2023-08-07T05:37:33;10.40;99.90
9542;DHT22;4809;48.224;8.572;2023-08-07T05:39:59;10.50;99.90
9542;DHT22;4809;48.224;8.572;2023-08-07T05:42:25;10.70;99.90
9542;DHT22;4809;48.224;8.572;2023-08-07T05:44:51;10.90;99.90
9542;DHT22;4809;48.224;8.572;2023-08-07T05:47:16;11.00;99.90
9542;DHT22;4809;48.224;8.572;2023-08-07T05:49:42;11.00;99.90
9542;DHT22;4809;48.224;8.572;2023-08-07T05:52:08;10.90;99.90
9542;DHT22;4809;48.224;8.572;2023-08-07T05:54:34;10.90;99.90
9542;DHT22;4809;48.224;8.572;2023-08-07T05:56:59;10.90;99.90
9542;DHT22;4809;48.224;8.572;2023-08-07T05:59:25;11.00;99.90
9542;DHT22;4809;48.224;8.572;2023-08-07T06:01:51;11.10;99.90
9542;DHT22;4809;48.224;8.572;2023-08-07T06:04:17;11.10;99.90
9542;DHT22;4809;48.224;8.572;2023-08-07T06:06:43;11.20;99.90
9542;DHT22;4809;48.224;8.572;2023-08-07T06:09:09;11.10;99.90
9542;DHT22;4809;48.224;8.572;2023-08-07T06:11:35;11.10;99.90
9542;DHT22;4809;48.224;8.572;2023-08-07T06:14:01;11.10;99.90
9542;DHT22;4809;48.224;8.572;2023-08-07T06:16:27;11.10;99.90
9542;DHT22;4809;48.224;8.572;2023-08-07T06:18:53;11.10;99.90
9542;DHT22;4809;48.224;8.572;2023-08-07T06:21:19;11.10;99.90
9542;DHT22;4809;48.224;8.572;2023-08-07T06:23:46;11.20;99.90
9542;DHT22;4809;48.224;8.572;2023-08-07T06:26:12;11.20;99.90
9542;DHT22;4809;48.224;8.572;2023-08-07T06:28:38;11.20;99.90
9542;DHT22;4809;48.224;8.572;2023-08-07T06:31:08;11.30;99.90
9542;DHT22;4809;48.224;8.572;2023-08-07T06:33:34;11.40;99.90
9542;DHT22;4809;48.224;8.572;2023-08-07T06:36:00;11.40;99.90
9542;DHT22;4809;48.224;8.572;2023-08-07T06:38:26;11.50;99.90
9542;DHT22;4809;48.224;8.572;2023-08-07T06:40:52;11.40;99.90
9542;DHT22;4809;48.224;8.572;2023-08-07T06:43:18;11.40;99.90
9542;DHT22;4809;48.224;8.572;2023-08-07T06:45:46;11.40;99.90
9542;DHT22;4809;48.224;8.572;2023-08-07T06:48:12;11.40;99.90
9542;DHT22;4809;48.224;8.572;2023-08-07T06:50:40;11.50;99.90
9542;DHT22;4809;48.224;8.572;2023-08-07T06:53:06;11.50;99.90
9542;DHT22;4809;48.224;8.572;2023-08-07T06:55:32;11.60;99.90
9542;DHT22;4809;48.224;8.572;2023-08-07T06:57:59;11.50;99.90
9542;DHT22;4809;48.224;8.572;2023-08-07T07:00:25;11.60;99.90
9542;DHT22;4809;48.224;8.572;2023-08-07T07:02:50;11.70;99.90
9542;DHT22;4809;48.224;8.572;2023-08-07T07:05:16;11.80;99.90
9542;DHT22;4809;48.224;8.572;2023-08-07T07:07:42;11.70;99.90
9542;DHT22;4809;48.224;8.572;2023-08-07T07:10:08;11.70;99.90
9542;DHT22;4809;48.224;8.572;2023-08-07T07:12:33;11.80;99.90
9542;DHT22;4809;48.224;8.572;2023-08-07T07:14:59;11.80;99.90
9542;DHT22;4809;48.224;8.572;2023-08-07T07:17:25;11.90;99.90
9542;DHT22;4809;48.224;8.572;2023-08-07T07:19:50;11.80;99.90
9542;DHT22;4809;48.224;8.572;2023-08-07T07:22:16;11.70;99.90
9542;DHT22;4809;48.224;8.572;2023-08-07T07:24:42;11.60;99.90
9542;DHT22;4809;48.224;8.572;2023-08-07T07:27:07;11.50;99.90
9542;DHT22;4809;48.224;8.572;2023-08-07T07:29:33;11.40;99.90
9542;DHT22;4809;48.224;8.572;2023-08-07T07:31:59;11.50;99.90
9542;DHT22;4809;48.224;8.572;2023-08-07T07:34:24;11.50;99.90
9542;DHT22;4809;48.224;8.572;2023-08-07T07:36:50;11.50;99.90
9542;DHT22;4809;48.224;8.572;2023-08-07T07:39:16;11.60;99.90
9542;DHT22;4809;48.224;8.572;2023-08-07T07:41:42;11.50;99.90
9542;DHT22;4809;48.224;8.572;2023-08-07T07:44:08;11.60;99.90
9542;DHT22;4809;48.224;8.572;2023-08-07T07:46:34;11.50;99.90
9542;DHT22;4809;48.224;8.572;2023-08-07T07:49:00;11.60;99.90
9542;DHT22;4809;48.224;8.572;2023-08-07T07:51:26;11.70;99.90
9542;DHT22;4809;48.224;8.572;2023-08-07T07:53:55;11.70;99.90
9542;DHT22;4809;48.224;8.572;2023-08-07T07:56:20;11.80;99.90
9542;DHT22;4809;48.224;8.572;2023-08-07T07:58:46;11.90;99.90
9542;DHT22;4809;48.224;8.572;2023-08-07T08:01:12;11.90;99.90
9542;DHT22;4809;48.224;8.572;2023-08-07T08:03:37;11.90;99.90
9542;DHT22;4809;48.224;8.572;2023-08-07T08:06:04;11.90;99.90
9542;DHT22;4809;48.224;8.572;2023-08-07T08:08:29;12.00;99.90
9542;DHT22;4809;48.224;8.572;2023-08-07T08:10:55;12.00;99.90
9542;DHT22;4809;48.224;8.572;2023-08-07T08:13:20;12.00;99.90
9542;DHT22;4809;48.224;8.572;2023-08-07T08:15:46;12.10;99.90
9542;DHT22;4809;48.224;8.572;2023-08-07T08:18:12;12.10;99.90
9542;DHT22;4809;48.224;8.572;2023-08-07T08:20:38;12.10;99.90
9542;DHT22;4809;48.224;8.572;2023-08-07T08:23:04;12.10;99.90
9542;DHT22;4809;48.224;8.572;2023-08-07T08:25:31;12.20;99.90
9542;DHT22;4809;48.224;8.572;2023-08-07T08:27:56;12.30;99.90
9542;DHT22;4809;48.224;8.572;2023-08-07T08:30:22;12.50;99.90
9542;DHT22;4809;48.224;8.572;2023-08-07T08:32:48;12.50;99.90
9542;DHT22;4809;48.224;8.572;2023-08-07T08:35:14;12.60;99.90
9542;DHT22;4809;48.224;8.572;2023-08-07T08:37:39;12.70;99.90
9542;DHT22;4809;48.224;8.572;2023-08-07T08:40:06;12.60;99.90
9542;DHT22;4809;48.224;8.572;2023-08-07T08:42:34;12.70;99.90
9542;DHT22;4809;48.224;8.572;2023-08-07T08:45:01;12.80;99.90
9542;DHT22;4809;48.224;8.572;2023-08-07T08:47:29;12.80;99.90
9542;DHT22;4809;48.224;8.572;2023-08-07T08:50:01;12.80;99.90
9542;DHT22;4809;48.224;8.572;2023-08-07T08:52:28;12.80;99.90
9542;DHT22;4809;48.224;8.572;2023-08-07T08:54:57;12.80;99.90
9542;DHT22;4809;48.224;8.572;2023-08-07T08:57:25;12.70;99.90
9542;DHT22;4809;48.224;8.572;2023-08-07T08:59:51;12.50;99.90
9542;DHT22;4809;48.224;8.572;2023-08-07T09:02:17;12.40;99.90
9542;DHT22;4809;48.224;8.572;2023-08-07T09:04:44;12.30;99.90
9542;DHT22;4809;48.224;8.572;2023-08-07T09:07:11;12.20;99.90
9542;DHT22;4809;48.224;8.572;2023-08-07T09:09:39;12.10;99.90
9542;DHT22;4809;48.224;8.572;2023-08-07T09:12:08;12.10;99.90
9542;DHT22;4809;48.224;8.572;2023-08-07T09:14:40;12.00;99.90
9542;DHT22;4809;48.224;8.572;2023-08-07T09:17:07;12.10;99.90
9542;DHT22;4809;48.224;8.572;2023-08-07T09:19:33;12.50;99.90
9542;DHT22;4809;48.224;8.572;2023-08-07T09:21:59;13.10;99.90
9542;DHT22;4809;48.224;8.572;2023-08-07T09:24:24;13.30;99.90
9542;DHT22;4809;48.224;8.572;2023-08-07T09:26:53;13.10;99.90
9542;DHT22;4809;48.224;8.572;2023-08-07T09:29:20;13.00;99.90
9542;DHT22;4809;48.224;8.572;2023-08-07T09:31:47;12.90;99.90
9542;DHT22;4809;48.224;8.572;2023-08-07T09:34:13;12.70;99.90
9542;DHT22;4809;48.224;8.572;2023-08-07T09:36:42;12.60;99.90
9542;DHT22;4809;48.224;8.572;2023-08-07T09:39:08;12.50;99.90
9542;DHT22;4809;48.224;8.572;2023-08-07T09:41:34;12.70;99.90
9542;DHT22;4809;48.224;8.572;2023-08-07T09:44:09;13.30;99.90
9542;DHT22;4809;48.224;8.572;2023-08-07T09:46:43;13.90;99.90
9542;DHT22;4809;48.224;8.572;2023-08-07T09:49:09;14.60;99.90
9542;DHT22;4809;48.224;8.572;2023-08-07T09:52:01;15.10;99.90
9542;DHT22;4809;48.224;8.572;2023-08-07T09:54:31;15.20;99.90
9542;DHT22;4809;48.224;8.572;2023-08-07T09:56:57;15.00;99.90
9542;DHT22;4809;48.224;8.572;2023-08-07T09:59:22;14.70;99.90
9542;DHT22;4809;48.224;8.572;2023-08-07T10:01:48;14.40;99.90
9542;DHT22;4809;48.224;8.572;2023-08-07T10:04:14;14.20;99.90
9542;DHT22;4809;48.224;8.572;2023-08-07T10:06:43;14.10;99.90
9542;DHT22;4809;48.224;8.572;2023-08-07T10:09:09;14.10;99.90
9542;DHT22;4809;48.224;8.572;2023-08-07T10:11:35;14.20;99.90
9542;DHT22;4809;48.224;8.572;2023-08-07T10:14:00;14.20;99.90
9542;DHT22;4809;48.224;8.572;2023-08-07T10:16:27;14.20;99.90
9542;DHT22;4809;48.224;8.572;2023-08-07T10:18:55;14.40;99.90
9542;DHT22;4809;48.224;8.572;2023-08-07T10:21:21;14.80;99.90
9542;DHT22;4809;48.224;8.572;2023-08-07T10:23:52;15.00;99.90
9542;DHT22;4809;48.224;8.572;2023-08-07T10:26:19;15.00;99.90
9542;DHT22;4809;48.224;8.572;2023-08-07T10:28:46;14.90;99.90
9542;DHT22;4809;48.224;8.572;2023-08-07T10:31:13;14.70;99.90
9542;DHT22;4809;48.224;8.572;2023-08-07T10:33:41;14.50;99.90
9542;DHT22;4809;48.224;8.572;2023-08-07T10:36:10;14.40;99.90
9542;DHT22;4809;48.224;8.572;2023-08-07T10:38:36;14.40;99.90
9542;DHT22;4809;48.224;8.572;2023-08-07T10:41:07;14.30;99.90
9542;DHT22;4809;48.224;8.572;2023-08-07T10:43:43;14.20;99.90
9542;DHT22;4809;48.224;8.572;2023-08-07T10:46:12;14.10;99.90
9542;DHT22;4809;48.224;8.572;2023-08-07T10:48:42;14.00;99.90
9542;DHT22;4809;48.224;8.572;2023-08-07T10:51:08;13.90;99.90
9542;DHT22;4809;48.224;8.572;2023-08-07T10:53:41;13.90;99.90
9542;DHT22;4809;48.224;8.572;2023-08-07T10:56:31;14.00;99.90
9542;DHT22;4809;48.224;8.572;2023-08-07T10:58:56;14.20;99.90
9542;DHT22;4809;48.224;8.572;2023-08-07T11:01:40;14.50;99.90
9542;DHT22;4809;48.224;8.572;2023-08-07T11:04:14;14.60;99.90
9542;DHT22;4809;48.224;8.572;2023-08-07T11:06:42;14.70;99.90
9542;DHT22;4809;48.224;8.572;2023-08-07T11:09:09;14.60;99.90
9542;DHT22;4809;48.224;8.572;2023-08-07T11:11:46;14.60;99.90
9542;DHT22;4809;48.224;8.572;2023-08-07T11:14:21;14.70;99.90
9542;DHT22;4809;48.224;8.572;2023-08-07T11:16:47;14.80;99.90
9542;DHT22;4809;48.224;8.572;2023-08-07T11:19:15;14.90;99.90
9542;DHT22;4809;48.224;8.572;2023-08-07T11:21:42;15.00;99.90
9542;DHT22;4809;48.224;8.572;2023-08-07T11:24:07;14.90;99.90
9542;DHT22;4809;48.224;8.572;2023-08-07T11:26:33;14.90;99.90
9542;DHT22;4809;48.224;8.572;2023-08-07T11:28:59;15.10;99.90
9542;DHT22;4809;48.224;8.572;2023-08-07T11:31:25;15.20;99.90
9542;DHT22;4809;48.224;8.572;2023-08-07T11:33:52;15.40;99.90
9542;DHT22;4809;48.224;8.572;2023-08-07T11:36:17;15.70;99.90
9542;DHT22;4809;48.224;8.572;2023-08-07T11:38:44;15.90;99.90
9542;DHT22;4809;48.224;8.572;2023-08-07T11:41:11;16.10;99.90
9542;DHT22;4809;48.224;8.572;2023-08-07T11:43:38;16.10;99.90
9542;DHT22;4809;48.224;8.572;2023-08-07T11:46:06;16.10;99.90
9542;DHT22;4809;48.224;8.572;2023-08-07T11:48:34;16.00;99.90
9542;DHT22;4809;48.224;8.572;2023-08-07T11:51:00;15.90;99.90
9542;DHT22;4809;48.224;8.572;2023-08-07T11:53:29;16.20;99.90
9542;DHT22;4809;48.224;8.572;2023-08-07T11:55:59;16.20;99.90
9542;DHT22;4809;48.224;8.572;2023-08-07T11:58:28;16.30;99.90
9542;DHT22;4809;48.224;8.572;2023-08-07T12:00:58;16.40;99.90
9542;DHT22;4809;48.224;8.572;2023-08-07T12:03:28;16.50;99.90
9542;DHT22;4809;48.224;8.572;2023-08-07T12:05:58;16.30;99.90
9542;DHT22;4809;48.224;8.572;2023-08-07T12:08:25;16.40;99.90
9542;DHT22;4809;48.224;8.572;2023-08-07T12:10:56;17.10;99.90
9542;DHT22;4809;48.224;8.572;2023-08-07T12:13:25;17.70;99.90
9542;DHT22;4809;48.224;8.572;2023-08-07T12:15:55;18.20;99.90
9542;DHT22;4809;48.224;8.572;2023-08-07T12:18:22;17.80;99.90
9542;DHT22;4809;48.224;8.572;2023-08-07T12:21:02;18.20;99.90
9542;DHT22;4809;48.224;8.572;2023-08-07T12:23:28;18.60;99.90
9542;DHT22;4809;48.224;8.572;2023-08-07T12:25:54;18.50;99.90
9542;DHT22;4809;48.224;8.572;2023-08-07T12:28:20;18.10;99.90
9542;DHT22;4809;48.224;8.572;2023-08-07T12:30:46;17.70;99.90
9542;DHT22;4809;48.224;8.572;2023-08-07T12:33:13;17.50;99.90
9542;DHT22;4809;48.224;8.572;2023-08-07T12:35:39;17.10;99.90
9542;DHT22;4809;48.224;8.572;2023-08-07T12:38:05;17.00;99.90
9542;DHT22;4809;48.224;8.572;2023-08-07T12:40:31;17.30;99.90
9542;DHT22;4809;48.224;8.572;2023-08-07T12:42:58;18.20;99.90
9542;DHT22;4809;48.224;8.572;2023-08-07T12:45:24;18.80;99.90
9542;DHT22;4809;48.224;8.572;2023-08-07T12:47:50;18.90;99.90
9542;DHT22;4809;48.224;8.572;2023-08-07T12:50:16;18.20;99.90
9542;DHT22;4809;48.224;8.572;2023-08-07T12:52:41;17.70;99.90
9542;DHT22;4809;48.224;8.572;2023-08-07T12:55:07;17.50;99.90
9542;DHT22;4809;48.224;8.572;2023-08-07T12:57:33;17.30;99.90
9542;DHT22;4809;48.224;8.572;2023-08-07T12:59:59;17.50;99.90
9542;DHT22;4809;48.224;8.572;2023-08-07T13:02:24;18.20;99.90
9542;DHT22;4809;48.224;8.572;2023-08-07T13:04:50;18.50;99.90
9542;DHT22;4809;48.224;8.572;2023-08-07T13:07:17;18.50;99.90
9542;DHT22;4809;48.224;8.572;2023-08-07T13:09:48;18.40;99.90
9542;DHT22;4809;48.224;8.572;2023-08-07T13:12:14;18.20;99.90
9542;DHT22;4809;48.224;8.572;2023-08-07T13:14:40;18.70;99.90
9542;DHT22;4809;48.224;8.572;2023-08-07T13:17:06;19.30;99.90
9542;DHT22;4809;48.224;8.572;2023-08-07T13:19:31;19.50;99.90
9542;DHT22;4809;48.224;8.572;2023-08-07T13:21:57;19.50;99.90
9542;DHT22;4809;48.224;8.572;2023-08-07T13:24:22;20.00;99.90
9542;DHT22;4809;48.224;8.572;2023-08-07T13:26:51;20.20;99.90
9542;DHT22;4809;48.224;8.572;2023-08-07T13:29:17;19.70;99.90
9542;DHT22;4809;48.224;8.572;2023-08-07T13:31:42;18.80;99.90
9542;DHT22;4809;48.224;8.572;2023-08-07T13:34:14;18.20;99.90
9542;DHT22;4809;48.224;8.572;2023-08-07T13:36:40;17.90;99.90
9542;DHT22;4809;48.224;8.572;2023-08-07T13:39:05;17.80;99.90
9542;DHT22;4809;48.224;8.572;2023-08-07T13:41:31;17.70;99.90
9542;DHT22;4809;48.224;8.572;2023-08-07T13:44:00;17.70;99.90
9542;DHT22;4809;48.224;8.572;2023-08-07T13:46:26;18.00;99.90
9542;DHT22;4809;48.224;8.572;2023-08-07T13:48:52;18.10;99.90
9542;DHT22;4809;48.224;8.572;2023-08-07T13:51:17;17.90;99.90
9542;DHT22;4809;48.224;8.572;2023-08-07T13:53:43;18.20;99.90
9542;DHT22;4809;48.224;8.572;2023-08-07T13:56:09;18.70;99.90
9542;DHT22;4809;48.224;8.572;2023-08-07T13:58:38;18.60;99.90
9542;DHT22;4809;48.224;8.572;2023-08-07T14:01:04;18.60;99.90
9542;DHT22;4809;48.224;8.572;2023-08-07T14:03:30;18.30;99.90
9542;DHT22;4809;48.224;8.572;2023-08-07T14:05:56;18.10;99.90
9542;DHT22;4809;48.224;8.572;2023-08-07T14:08:22;17.80;99.90
9542;DHT22;4809;48.224;8.572;2023-08-07T14:10:48;17.50;99.90
9542;DHT22;4809;48.224;8.572;2023-08-07T14:13:13;17.30;99.90
9542;DHT22;4809;48.224;8.572;2023-08-07T14:15:39;17.40;99.90
9542;DHT22;4809;48.224;8.572;2023-08-07T14:18:05;18.10;99.90
9542;DHT22;4809;48.224;8.572;2023-08-07T14:20:31;19.00;99.90
9542;DHT22;4809;48.224;8.572;2023-08-07T14:22:57;19.50;99.70
9542;DHT22;4809;48.224;8.572;2023-08-07T14:25:22;19.70;99.90
9542;DHT22;4809;48.224;8.572;2023-08-07T14:27:48;19.90;98.30
9542;DHT22;4809;48.224;8.572;2023-08-07T14:30:15;19.40;97.30
9542;DHT22;4809;48.224;8.572;2023-08-07T14:32:40;18.70;98.70
9542;DHT22;4809;48.224;8.572;2023-08-07T14:35:08;18.70;99.90
9542;DHT22;4809;48.224;8.572;2023-08-07T14:37:34;19.50;99.90
9542;DHT22;4809;48.224;8.572;2023-08-07T14:40:01;20.20;99.20
9542;DHT22;4809;48.224;8.572;2023-08-07T14:42:26;20.70;98.80
9542;DHT22;4809;48.224;8.572;2023-08-07T14:44:52;21.10;97.70
9542;DHT22;4809;48.224;8.572;2023-08-07T14:47:18;20.90;96.80
9542;DHT22;4809;48.224;8.572;2023-08-07T14:49:43;20.60;96.70
9542;DHT22;4809;48.224;8.572;2023-08-07T14:52:09;20.00;97.50
9542;DHT22;4809;48.224;8.572;2023-08-07T14:54:35;19.60;97.80
9542;DHT22;4809;48.224;8.572;2023-08-07T14:57:00;19.30;99.20
9542;DHT22;4809;48.224;8.572;2023-08-07T14:59:26;19.50;98.20
9542;DHT22;4809;48.224;8.572;2023-08-07T15:01:52;20.00;97.40
9542;DHT22;4809;48.224;8.572;2023-08-07T15:04:18;20.50;98.10
9542;DHT22;4809;48.224;8.572;2023-08-07T15:06:43;20.60;95.80
9542;DHT22;4809;48.224;8.572;2023-08-07T15:09:13;20.90;95.30
9542;DHT22;4809;48.224;8.572;2023-08-07T15:11:39;21.20;95.20
9542;DHT22;4809;48.224;8.572;2023-08-07T15:14:05;21.10;94.70
9542;DHT22;4809;48.224;8.572;2023-08-07T15:16:31;21.20;94.40
9542;DHT22;4809;48.224;8.572;2023-08-07T15:18:57;21.30;92.90
9542;DHT22;4809;48.224;8.572;2023-08-07T15:21:22;21.10;93.50
9542;DHT22;4809;48.224;8.572;2023-08-07T15:23:48;20.70;92.60
9542;DHT22;4809;48.224;8.572;2023-08-07T15:26:14;20.90;93.00
9542;DHT22;4809;48.224;8.572;2023-08-07T15:28:40;21.10;91.50
9542;DHT22;4809;48.224;8.572;2023-08-07T15:31:05;21.20;92.00
9542;DHT22;4809;48.224;8.572;2023-08-07T15:33:31;20.70;91.80
9542;DHT22;4809;48.224;8.572;2023-08-07T15:35:57;20.20;92.30
9542;DHT22;4809;48.224;8.572;2023-08-07T15:38:25;19.80;92.40
9542;DHT22;4809;48.224;8.572;2023-08-07T15:40:51;19.60;93.90
9542;DHT22;4809;48.224;8.572;2023-08-07T15:43:17;19.70;93.80
9542;DHT22;4809;48.224;8.572;2023-08-07T15:45:45;19.60;94.10
9542;DHT22;4809;48.224;8.572;2023-08-07T15:48:12;19.30;94.20
9542;DHT22;4809;48.224;8.572;2023-08-07T15:50:37;18.90;95.20
9542;DHT22;4809;48.224;8.572;2023-08-07T15:53:07;18.50;95.50
9542;DHT22;4809;48.224;8.572;2023-08-07T15:55:33;18.30;96.10
9542;DHT22;4809;48.224;8.572;2023-08-07T15:58:02;18.20;97.50
9542;DHT22;4809;48.224;8.572;2023-08-07T16:00:27;18.80;98.70
9542;DHT22;4809;48.224;8.572;2023-08-07T16:02:55;19.30;97.90